Time;durP1;ratioP1;P1;durP2;ratioP2;P2;SDS_P1;SDS_P2;PMS_P1;PMS_P2;Temp;Humidity;BMP_temperature;BMP_pressure;BME280_temperature;BME280_humidity;BME280_pressure;Samples;Min_cycle;Max_cycle;Signal;HPM_P1;HPM_P2
2022/06/10 03:03:00;;;;;;;8.85;3.85;;;11.70;99.90;;;;;;6217206;23;20021;-81
2022/06/10 03:05:51;;;;;;;9.80;4.13;;;11.70;99.90;;;;;;6215974;23;20016;-81
2022/06/10 03:08:28;;;;;;;10.82;3.78;;;11.70;99.90;;;;;;6191607;23;20016;-80
2022/06/10 03:10:57;;;;;;;11.40;3.90;;;11.70;99.90;;;;;;6216259;23;20016;-81
2022/06/10 03:13:45;;;;;;;11.73;3.60;;;11.70;99.90;;;;;;6166206;23;20017;-79
2022/06/10 03:16:33;;;;;;;12.02;3.80;;;11.70;99.90;;;;;;6191442;23;20008;-80
2022/06/10 03:19:06;;;;;;;14.48;3.80;;;11.60;99.90;;;;;;6190904;23;20043;-79
2022/06/10 03:22:06;;;;;;;15.50;3.75;;;11.70;99.90;;;;;;6190659;23;20091;-81
2022/06/10 03:24:50;;;;;;;12.65;3.45;;;11.70;99.90;;;;;;6217853;23;20087;-81
2022/06/10 03:27:28;;;;;;;10.75;3.45;;;11.70;99.90;;;;;;6217400;23;20450;-81
2022/06/10 03:30:02;;;;;;;12.65;3.70;;;11.70;99.90;;;;;;6191054;23;20017;-81
2022/06/10 03:32:46;;;;;;;13.18;3.60;;;11.70;99.90;;;;;;6191280;23;20012;-80
2022/06/10 03:35:23;;;;;;;11.80;4.10;;;11.70;99.90;;;;;;6223437;23;20008;-78
2022/06/10 03:37:49;;;;;;;16.80;4.05;;;11.70;99.90;;;;;;6194266;23;20023;-81
2022/06/10 03:40:19;;;;;;;15.10;3.80;;;11.70;99.90;;;;;;6191036;23;20091;-79
2022/06/10 03:42:48;;;;;;;12.57;3.35;;;11.70;99.90;;;;;;6190497;23;20082;-80
2022/06/10 03:45:18;;;;;;;10.07;4.20;;;11.70;99.90;;;;;;6165911;23;20024;-80
2022/06/10 03:47:44;;;;;;;10.57;3.85;;;11.70;99.90;;;;;;6190768;23;20016;-80
2022/06/10 03:50:13;;;;;;;14.40;3.90;;;11.70;99.90;;;;;;6218436;23;20013;-81
2022/06/10 03:52:40;;;;;;;9.27;3.17;;;11.80;99.90;;;;;;6190595;23;20017;-79
2022/06/10 03:55:08;;;;;;;12.18;4.07;;;11.70;99.90;;;;;;6165742;23;20510;-81
2022/06/10 03:57:34;;;;;;;14.57;4.07;;;11.80;99.90;;;;;;6165648;23;20044;-79
2022/06/10 04:00:00;;;;;;;10.65;3.70;;;11.80;99.90;;;;;;6190215;23;20062;-81
2022/06/10 04:02:26;;;;;;;19.02;3.67;;;11.80;99.90;;;;;;6217451;23;20083;-81
2022/06/10 04:04:52;;;;;;;11.48;3.80;;;11.80;99.90;;;;;;6190396;23;20454;-81
2022/06/10 04:07:19;;;;;;;14.60;4.50;;;11.90;99.90;;;;;;6190412;23;20017;-81
2022/06/10 04:09:48;;;;;;;13.02;3.67;;;11.90;99.90;;;;;;6165700;23;20051;-82
2022/06/10 04:12:15;;;;;;;11.63;4.20;;;11.90;99.90;;;;;;6190343;23;20382;-81
2022/06/10 04:14:42;;;;;;;11.07;3.83;;;12.00;99.90;;;;;;6190156;23;20023;-80
2022/06/10 04:17:09;;;;;;;11.95;3.78;;;12.00;99.90;;;;;;6190546;23;20017;-81
2022/06/10 04:19:34;;;;;;;12.35;3.70;;;12.10;99.90;;;;;;6190243;23;20012;-80
2022/06/10 04:22:00;;;;;;;7.97;3.33;;;12.10;99.90;;;;;;6189985;23;20015;-81
2022/06/10 04:24:26;;;;;;;13.70;3.92;;;12.10;99.90;;;;;;6189963;23;20009;-80
2022/06/10 04:26:52;;;;;;;11.25;4.20;;;12.20;99.90;;;;;;6190350;23;20120;-82
2022/06/10 04:29:19;;;;;;;10.02;4.03;;;12.30;99.90;;;;;;6190259;23;20013;-80
2022/06/10 04:31:44;;;;;;;18.42;4.75;;;12.30;99.90;;;;;;6165109;23;20019;-81
2022/06/10 04:34:11;;;;;;;11.00;3.55;;;12.40;99.90;;;;;;6190414;23;20091;-81
2022/06/10 04:36:37;;;;;;;14.23;3.75;;;12.50;99.90;;;;;;6189987;23;20009;-82
2022/06/10 04:39:03;;;;;;;14.40;3.70;;;12.60;99.90;;;;;;6165441;23;20445;-82
2022/06/10 04:41:29;;;;;;;15.45;4.05;;;12.70;99.90;;;;;;6189473;23;20008;-82
2022/06/10 04:43:55;;;;;;;10.40;4.38;;;12.80;99.90;;;;;;6190037;23;20023;-81
2022/06/10 04:46:32;;;;;;;13.32;3.65;;;12.80;99.90;;;;;;6189872;23;20022;-81
2022/06/10 04:48:59;;;;;;;14.25;3.80;;;12.90;99.90;;;;;;6190040;23;20055;-81
2022/06/10 04:51:25;;;;;;;16.90;4.38;;;13.00;99.90;;;;;;6164964;23;20024;-81
2022/06/10 04:53:51;;;;;;;15.07;4.22;;;13.00;99.90;;;;;;6189951;23;20039;-80
2022/06/10 04:56:17;;;;;;;13.93;4.05;;;13.10;99.90;;;;;;6190126;23;20342;-81
2022/06/10 04:58:42;;;;;;;14.73;3.60;;;13.10;99.90;;;;;;6189789;23;20027;-82
2022/06/10 05:01:08;;;;;;;15.02;4.18;;;13.10;99.90;;;;;;6164786;23;20088;-80
2022/06/10 05:03:35;;;;;;;13.75;3.70;;;13.20;99.90;;;;;;6165018;23;20044;-80
2022/06/10 05:06:00;;;;;;;12.45;3.67;;;13.30;99.90;;;;;;6189895;23;20064;-81
2022/06/10 05:08:26;;;;;;;11.88;3.40;;;13.30;99.90;;;;;;6216536;23;20012;-82
2022/06/10 05:10:52;;;;;;;17.88;4.18;;;13.30;99.90;;;;;;6216736;23;20016;-81
2022/06/10 05:13:20;;;;;;;15.10;3.50;;;13.40;99.90;;;;;;6189545;23;20020;-80
2022/06/10 05:15:46;;;;;;;11.48;3.38;;;13.50;99.90;;;;;;6189369;23;20019;-80
2022/06/10 05:18:15;;;;;;;12.40;3.50;;;13.50;99.90;;;;;;6165024;23;20035;-81
2022/06/10 05:20:42;;;;;;;14.13;3.60;;;13.60;99.90;;;;;;6190161;23;20013;-82
2022/06/10 05:23:11;;;;;;;14.02;3.30;;;13.60;99.90;;;;;;6164672;23;20457;-80
2022/06/10 05:25:37;;;;;;;18.40;4.18;;;13.70;99.90;;;;;;6189701;23;20320;-81
2022/06/10 05:28:04;;;;;;;12.52;3.60;;;13.70;99.90;;;;;;6216750;23;20085;-81
2022/06/10 05:30:32;;;;;;;13.77;4.68;;;13.70;99.90;;;;;;6189542;23;20040;-82
2022/06/10 05:32:59;;;;;;;23.58;4.68;;;13.80;99.90;;;;;;6189438;23;20019;-80
2022/06/10 05:35:25;;;;;;;13.75;3.58;;;13.80;99.90;;;;;;6164867;23;20005;-81
2022/06/10 05:37:51;;;;;;;13.07;4.30;;;13.80;99.90;;;;;;6189488;23;20016;-81
2022/06/10 05:40:19;;;;;;;14.55;4.07;;;13.70;99.90;;;;;;6189056;23;20331;-82
2022/06/10 05:42:44;;;;;;;15.13;4.20;;;13.70;99.90;;;;;;6216042;23;20431;-83
2022/06/10 05:45:13;;;;;;;14.98;4.20;;;13.70;99.90;;;;;;6164855;23;20017;-82
2022/06/10 05:47:41;;;;;;;14.00;3.88;;;13.70;99.90;;;;;;6216706;23;20159;-82
2022/06/10 05:50:11;;;;;;;17.02;4.05;;;13.80;99.90;;;;;;6190356;23;20044;-81
2022/06/10 05:52:37;;;;;;;14.52;3.72;;;13.80;99.90;;;;;;6190924;23;20048;-82
2022/06/10 05:55:05;;;;;;;14.77;4.22;;;13.90;99.90;;;;;;6218360;23;20457;-80
2022/06/10 05:57:31;;;;;;;12.02;4.07;;;13.90;99.90;;;;;;6192398;23;20096;-83
2022/06/10 06:00:00;;;;;;;17.95;4.35;;;13.90;99.90;;;;;;6219307;23;20062;-82
2022/06/10 06:02:26;;;;;;;13.70;4.13;;;14.00;99.90;;;;;;6218480;23;20079;-85
2022/06/10 06:04:52;;;;;;;15.85;4.25;;;14.10;99.90;;;;;;6162433;23;20009;-83
2022/06/10 06:07:24;;;;;;;12.55;3.88;;;14.20;99.90;;;;;;6211418;23;20009;-83
2022/06/10 06:09:50;;;;;;;14.52;4.15;;;14.30;99.90;;;;;;6218614;23;20074;-84
2022/06/10 06:12:16;;;;;;;8.98;3.55;;;14.30;99.90;;;;;;6191614;23;20378;-83
2022/06/10 06:14:42;;;;;;;12.23;4.13;;;14.40;99.90;;;;;;6218364;23;20013;-85
2022/06/10 06:17:10;;;;;;;16.02;5.07;;;14.40;99.90;;;;;;6218458;23;20009;-84
2022/06/10 06:19:36;;;;;;;16.77;4.63;;;14.50;99.90;;;;;;6191128;23;20017;-83
2022/06/10 06:22:02;;;;;;;10.55;4.28;;;14.50;99.90;;;;;;6191444;23;20328;-83
2022/06/10 06:24:28;;;;;;;12.93;4.55;;;14.50;99.90;;;;;;6191623;23;20023;-81
2022/06/10 06:26:54;;;;;;;15.48;4.75;;;14.60;99.90;;;;;;6191617;23;20027;-83
2022/06/10 06:29:24;;;;;;;17.80;4.80;;;14.60;99.90;;;;;;6191046;23;20091;-82
2022/06/10 06:31:52;;;;;;;12.35;5.03;;;14.70;99.90;;;;;;6191189;23;20044;-82
2022/06/10 06:34:21;;;;;;;16.73;5.00;;;14.70;99.90;;;;;;6190715;23;20016;-82
2022/06/10 06:36:49;;;;;;;17.65;4.82;;;14.80;99.90;;;;;;6190820;23;20013;-83
2022/06/10 06:39:18;;;;;;;18.35;5.50;;;14.90;99.90;;;;;;6191158;23;20020;-83
2022/06/10 06:41:44;;;;;;;17.33;5.00;;;14.90;99.90;;;;;;6191331;23;20020;-82
2022/06/10 06:44:10;;;;;;;15.63;5.10;;;14.90;99.90;;;;;;6191415;23;20057;-83
2022/06/10 06:46:37;;;;;;;14.05;5.28;;;15.00;99.90;;;;;;6191794;23;20016;-81
2022/06/10 06:49:07;;;;;;;12.93;5.43;;;15.00;99.90;;;;;;6191315;23;20012;-83
2022/06/10 06:51:33;;;;;;;13.95;5.60;;;15.00;99.90;;;;;;6190701;23;20023;-82
2022/06/10 06:53:59;;;;;;;18.83;6.35;;;15.00;99.90;;;;;;6191442;23;20024;-82
2022/06/10 06:56:26;;;;;;;13.65;6.10;;;15.10;99.90;;;;;;6190718;23;20016;-82
2022/06/10 06:58:52;;;;;;;15.52;5.57;;;15.10;99.90;;;;;;6218335;23;20017;-81
2022/06/10 07:01:17;;;;;;;12.45;5.72;;;15.10;99.90;;;;;;6217094;23;20084;-83
2022/06/10 07:03:43;;;;;;;15.60;5.75;;;15.10;99.90;;;;;;6190582;23;20047;-81
2022/06/10 07:06:10;;;;;;;19.98;5.72;;;15.10;99.90;;;;;;6217817;23;20017;-82
2022/06/10 07:08:36;;;;;;;14.40;5.32;;;15.20;99.90;;;;;;6218214;23;20040;-82
2022/06/10 07:11:03;;;;;;;14.23;5.53;;;15.20;99.90;;;;;;6190487;23;20015;-81
2022/06/10 07:13:29;;;;;;;16.48;6.07;;;15.20;99.90;;;;;;6191347;23;20016;-83
2022/06/10 07:15:57;;;;;;;15.57;5.20;;;15.20;99.90;;;;;;6190789;23;20454;-82
2022/06/10 07:18:22;;;;;;;13.88;5.63;;;15.30;99.90;;;;;;6218272;23;20016;-84
2022/06/10 07:20:48;;;;;;;13.93;4.72;;;15.40;99.90;;;;;;6190942;23;20092;-82
2022/06/10 07:23:14;;;;;;;13.35;5.13;;;15.50;99.90;;;;;;6166932;23;20013;-80
2022/06/10 07:25:40;;;;;;;16.23;4.85;;;15.50;99.90;;;;;;6190789;23;20044;-81
2022/06/10 07:28:07;;;;;;;12.95;4.70;;;15.60;99.90;;;;;;6165670;23;20513;-84
2022/06/10 07:30:34;;;;;;;14.27;4.68;;;15.70;99.90;;;;;;6165619;23;20477;-82
2022/06/10 07:33:00;;;;;;;15.25;4.80;;;15.70;99.90;;;;;;6190543;23;20016;-83
2022/06/10 07:35:27;;;;;;;12.38;4.65;;;15.70;99.90;;;;;;6217237;23;20011;-82
2022/06/10 07:37:53;;;;;;;16.02;4.95;;;15.80;99.90;;;;;;6191249;23;20075;-80
2022/06/10 07:43:32;;;;;;;14.48;4.57;;;15.90;99.90;;;;;;6217356;23;20017;-82
2022/06/10 07:45:59;;;;;;;12.50;4.65;;;15.90;99.90;;;;;;6217494;23;20068;-83
2022/06/10 07:48:25;;;;;;;11.32;4.20;;;15.90;99.90;;;;;;6165771;23;20048;-84
2022/06/10 07:50:51;;;;;;;15.45;4.50;;;15.90;99.90;;;;;;6165497;23;20120;-82
2022/06/10 07:53:18;;;;;;;15.20;4.78;;;16.00;99.90;;;;;;6190478;23;20021;-83
2022/06/10 07:55:47;;;;;;;16.17;5.32;;;16.00;99.90;;;;;;6190510;23;20015;-81
2022/06/10 07:58:15;;;;;;;16.25;4.35;;;16.10;99.90;;;;;;6216712;23;20012;-84
2022/06/10 08:00:41;;;;;;;11.93;4.55;;;16.10;99.90;;;;;;6216908;23;20123;-84
2022/06/10 08:03:07;;;;;;;13.52;4.45;;;16.20;99.90;;;;;;6190525;23;20043;-83
2022/06/10 08:05:33;;;;;;;12.68;4.80;;;16.10;99.90;;;;;;6216896;23;20106;-84
2022/06/10 08:08:01;;;;;;;14.73;4.60;;;16.20;99.90;;;;;;6190431;23;20012;-80
2022/06/10 08:10:33;;;;;;;16.65;4.20;;;16.30;99.90;;;;;;6189277;23;20023;-82
2022/06/10 08:12:58;;;;;;;17.73;4.50;;;16.30;99.90;;;;;;6165165;23;20095;-82
2022/06/10 08:15:25;;;;;;;21.85;6.05;;;16.30;99.90;;;;;;6189559;23;20032;-82
2022/06/10 08:17:51;;;;;;;22.23;4.72;;;16.30;99.90;;;;;;6189913;23;20017;-83
2022/06/10 08:23:14;;;;;;;;;;;16.50;99.90;;;;;;6190356;23;20095;-84
2022/06/10 08:25:40;;;;;;;15.70;3.78;;;16.50;99.90;;;;;;6165034;23;19961;-84
2022/06/10 08:28:06;;;;;;;12.05;3.53;;;16.50;99.90;;;;;;6189843;23;20008;-84
2022/06/10 08:30:32;;;;;;;17.45;4.03;;;16.60;99.90;;;;;;6189871;23;20403;-83
2022/06/10 08:32:59;;;;;;;12.30;3.53;;;16.60;99.90;;;;;;6165468;23;20013;-82
2022/06/10 08:35:25;;;;;;;10.32;3.53;;;16.60;99.90;;;;;;6191243;23;20062;-83
2022/06/10 08:37:50;;;;;;;13.18;3.40;;;16.60;99.90;;;;;;6192505;23;20017;-82
2022/06/10 08:40:52;;;;;;;11.85;4.03;;;16.50;99.90;;;;;;6191580;23;20158;-83
2022/06/10 08:43:33;;;;;;;12.30;4.03;;;16.60;99.90;;;;;;6169598;23;20066;-82
2022/06/10 08:46:36;;;;;;;13.15;3.70;;;16.50;99.90;;;;;;6190793;23;20013;-82
2022/06/10 08:49:32;;;;;;;14.23;3.58;;;16.50;99.90;;;;;;6189679;23;20016;-84
2022/06/10 08:52:29;;;;;;;10.27;3.50;;;16.50;99.90;;;;;;6188172;23;20047;-83
2022/06/10 08:55:11;;;;;;;17.13;3.88;;;16.60;99.90;;;;;;6164632;23;20385;-82
2022/06/10 08:57:41;;;;;;;11.07;3.47;;;16.60;99.90;;;;;;6189601;23;20017;-82
2022/06/10 09:00:17;;;;;;;15.38;4.32;;;16.70;99.90;;;;;;6189399;23;20062;-83
2022/06/10 09:03:16;;;;;;;15.70;4.38;;;16.70;99.90;;;;;;6164966;23;20013;-82
2022/06/10 09:05:56;;;;;;;10.50;4.28;;;16.80;99.90;;;;;;6164960;23;20016;-83
2022/06/10 09:08:26;;;;;;;15.43;4.25;;;16.90;99.90;;;;;;6189451;23;20020;-83
2022/06/10 09:10:58;;;;;;;14.40;4.40;;;16.80;99.90;;;;;;6189355;23;20095;-83
2022/06/10 09:13:47;;;;;;;16.15;4.57;;;16.80;99.90;;;;;;6189140;23;20019;-84
2022/06/10 09:16:43;;;;;;;13.18;4.07;;;16.80;99.90;;;;;;6188558;23;20004;-85
2022/06/10 09:19:24;;;;;;;9.70;4.10;;;16.80;99.90;;;;;;6164419;23;20019;-83
2022/06/10 09:22:04;;;;;;;13.15;4.45;;;16.80;99.90;;;;;;6189370;23;20012;-83
2022/06/10 09:24:36;;;;;;;13.38;4.65;;;16.90;99.90;;;;;;6189263;23;20087;-83
2022/06/10 09:27:15;;;;;;;15.27;5.00;;;16.90;99.90;;;;;;6188775;23;20044;-85
2022/06/10 09:29:41;;;;;;;12.60;4.28;;;16.90;99.90;;;;;;6189103;23;20091;-84
2022/06/10 09:32:28;;;;;;;17.92;5.30;;;17.00;99.90;;;;;;6163759;23;20009;-84
2022/06/10 09:34:56;;;;;;;15.38;5.05;;;17.10;99.90;;;;;;6189273;23;20469;-82
2022/06/10 09:37:39;;;;;;;14.57;5.60;;;17.10;99.90;;;;;;6164429;23;20023;-82
2022/06/10 09:43:07;;;;;;;13.30;5.45;;;17.20;99.90;;;;;;6215467;23;20023;-84
2022/06/10 09:46:00;;;;;;;13.20;4.85;;;17.20;99.90;;;;;;6164151;23;20321;-83
2022/06/10 09:48:46;;;;;;;17.80;5.70;;;17.30;99.90;;;;;;6164189;23;20016;-83
2022/06/10 09:51:23;;;;;;;14.38;6.20;;;17.30;99.90;;;;;;6188709;23;20451;-81
2022/06/10 09:54:26;;;;;;;11.45;4.40;;;17.40;99.90;;;;;;6189060;23;20017;-82
2022/06/10 09:57:15;;;;;;;17.90;5.05;;;17.40;99.90;;;;;;6164531;23;20014;-82
2022/06/10 10:00:09;;;;;;;15.07;4.40;;;17.40;99.90;;;;;;6164270;23;20016;-82
2022/06/10 10:03:28;;;;;;;11.02;3.95;;;17.50;99.90;;;;;;6188687;23;20013;-83
2022/06/10 10:06:00;;;;;;;11.68;4.00;;;17.50;99.90;;;;;;6125821;23;20438;-82
2022/06/10 10:08:43;;;;;;;11.30;3.80;;;17.60;99.90;;;;;;6163880;23;20052;-82
2022/06/10 10:11:57;;;;;;;12.68;4.47;;;17.70;99.90;;;;;;6163341;23;20012;-82
2022/06/10 10:14:45;;;;;;;13.32;4.00;;;18.00;99.90;;;;;;6179219;23;20012;-83
2022/06/10 10:17:35;;;;;;;13.90;4.00;;;18.10;99.90;;;;;;6163044;23;20077;-82
2022/06/10 10:20:09;;;;;;;8.90;3.58;;;18.20;99.90;;;;;;6187015;23;20470;-84
2022/06/10 10:23:02;;;;;;;12.10;3.72;;;18.20;99.90;;;;;;6189180;23;20016;-84
2022/06/10 10:25:29;;;;;;;14.57;4.20;;;18.20;99.90;;;;;;6216015;23;20020;-83
2022/06/10 10:27:55;;;;;;;13.13;3.80;;;18.30;99.90;;;;;;6215432;23;20443;-81
2022/06/10 10:30:40;;;;;;;14.10;4.22;;;18.30;99.90;;;;;;6189072;23;20013;-84
2022/06/10 10:33:12;;;;;;;13.07;4.27;;;18.40;99.90;;;;;;6189543;23;20020;-83
2022/06/10 10:35:53;;;;;;;13.15;4.15;;;18.50;99.90;;;;;;6187827;23;20013;-82
2022/06/10 10:38:41;;;;;;;13.35;4.13;;;18.60;99.90;;;;;;6189147;23;20044;-83
2022/06/10 10:41:25;;;;;;;13.18;4.47;;;18.70;99.90;;;;;;6190480;23;20498;-82
2022/06/10 10:43:54;;;;;;;14.27;4.88;;;18.90;99.90;;;;;;6190706;23;20043;-83
2022/06/10 10:46:35;;;;;;;10.10;4.70;;;19.00;99.90;;;;;;6165769;23;20021;-81
2022/06/10 10:49:20;;;;;;;13.88;4.85;;;19.10;99.90;;;;;;6165882;23;20026;-85
2022/06/10 10:51:48;;;;;;;12.20;4.80;;;19.20;99.90;;;;;;6190248;23;20056;-83
2022/06/10 10:54:27;;;;;;;12.65;5.45;;;19.20;99.90;;;;;;6190791;23;20035;-84
2022/06/10 10:56:54;;;;;;;14.00;5.43;;;19.10;99.90;;;;;;6189749;23;20126;-83
2022/06/10 10:59:33;;;;;;;13.60;4.72;;;19.10;99.90;;;;;;6165984;23;20016;-83
2022/06/10 11:02:00;;;;;;;14.50;4.95;;;19.10;99.90;;;;;;6190410;23;20008;-82
2022/06/10 11:04:36;;;;;;;17.17;6.20;;;19.10;99.90;;;;;;6190815;23;20017;-81
2022/06/10 11:07:16;;;;;;;13.57;5.70;;;19.10;99.90;;;;;;6166328;23;20019;-83
2022/06/10 11:09:45;;;;;;;10.93;4.55;;;19.10;99.90;;;;;;6190836;23;20018;-82
2022/06/10 11:12:15;;;;;;;14.43;5.30;;;19.10;99.90;;;;;;6190981;23;20084;-84
2022/06/10 11:14:45;;;;;;;11.05;4.75;;;19.20;99.90;;;;;;6166349;23;20069;-81
2022/06/10 11:17:11;;;;;;;10.82;5.32;;;19.20;99.90;;;;;;6190084;23;20385;-85
2022/06/10 11:19:37;;;;;;;11.60;5.53;;;19.60;99.90;;;;;;6166137;23;20090;-82
2022/06/10 11:22:15;;;;;;;15.98;5.30;;;19.80;99.90;;;;;;6190006;23;20017;-84
2022/06/10 11:24:46;;;;;;;9.27;4.63;;;19.90;99.90;;;;;;6191250;23;20008;-85
2022/06/10 11:27:18;;;;;;;15.52;5.53;;;19.90;99.90;;;;;;6166041;23;20091;-84
2022/06/10 11:29:57;;;;;;;13.10;4.63;;;19.80;99.90;;;;;;6190950;23;20039;-84
2022/06/10 11:32:28;;;;;;;9.65;4.20;;;19.80;99.90;;;;;;6190410;23;20067;-86
2022/06/10 11:35:02;;;;;;;12.90;5.45;;;19.70;99.90;;;;;;6218231;23;20070;-84
2022/06/10 11:37:40;;;;;;;15.23;4.90;;;19.60;99.90;;;;;;6191763;23;20024;-86
2022/06/10 11:40:22;;;;;;;21.67;5.40;;;19.50;99.90;;;;;;6191437;23;20012;-84
2022/06/10 11:43:06;;;;;;;8.73;4.65;;;19.50;99.90;;;;;;6217624;23;20016;-83
2022/06/10 11:45:44;;;;;;;16.25;4.60;;;19.50;99.90;;;;;;6190494;23;20020;-82
2022/06/10 11:48:34;;;;;;;10.35;4.50;;;19.50;99.90;;;;;;6190140;23;20019;-83
2022/06/10 11:51:22;;;;;;;13.57;4.30;;;19.50;99.90;;;;;;6190452;23;20013;-84
2022/06/10 11:54:02;;;;;;;10.93;4.13;;;19.50;99.90;;;;;;6190625;23;20083;-82
2022/06/10 12:00:03;;;;;;;11.50;5.18;;;19.50;99.90;;;;;;6190274;23;20021;-84
2022/06/10 12:02:48;;;;;;;15.50;4.00;;;19.50;99.90;;;;;;6165236;23;20351;-83
2022/06/10 12:05:32;;;;;;;6.68;3.92;;;19.70;99.90;;;;;;6190033;23;20063;-86
2022/06/10 12:08:16;;;;;;;9.45;4.20;;;19.80;99.90;;;;;;6217237;23;20059;-84
2022/06/10 12:10:56;;;;;;;14.10;4.53;;;19.90;99.90;;;;;;6164866;23;20012;-83
2022/06/10 12:13:24;;;;;;;13.40;5.07;;;19.90;99.90;;;;;;6165773;23;20096;-84
2022/06/10 12:15:57;;;;;;;14.77;4.32;;;19.90;99.90;;;;;;6189886;23;20039;-82
2022/06/10 12:18:27;;;;;;;12.88;4.63;;;19.80;99.90;;;;;;6190403;23;20075;-83
2022/06/10 12:21:01;;;;;;;10.75;4.65;;;19.80;99.90;;;;;;6189578;23;20010;-83
2022/06/10 12:23:37;;;;;;;15.15;4.97;;;19.70;99.90;;;;;;6190318;23;20008;-84
2022/06/10 12:26:47;;;;;;;12.32;5.00;;;19.70;99.90;;;;;;6189665;23;20087;-83
2022/06/10 12:29:25;;;;;;;16.15;4.80;;;19.60;99.90;;;;;;6165652;23;20094;-83
2022/06/10 12:32:12;;;;;;;14.52;5.20;;;19.50;99.90;;;;;;6216790;23;20308;-82
2022/06/10 12:35:10;;;;;;;14.25;6.25;;;19.60;99.90;;;;;;6190166;23;20017;-84
2022/06/10 12:37:45;;;;;;;10.63;5.22;;;19.70;99.90;;;;;;6193081;23;20028;-84
2022/06/10 12:40:16;;;;;;;;;;;19.80;99.90;;;;;;6190939;23;20016;-84
2022/06/10 12:42:57;;;;;;;9.60;4.93;;;19.80;99.90;;;;;;6216101;23;19912;-83
2022/06/10 12:45:53;;;;;;;13.48;5.13;;;19.70;99.90;;;;;;6190804;23;20021;-82
2022/06/10 12:48:29;;;;;;;10.88;5.55;;;19.80;99.90;;;;;;6174157;23;20013;-83
2022/06/10 12:51:12;;;;;;;10.20;4.70;;;19.90;99.90;;;;;;6190687;23;20339;-82
2022/06/10 12:54:14;;;;;;;12.73;5.20;;;20.00;99.90;;;;;;6189939;23;20038;-83
2022/06/10 12:56:39;;;;;;;12.13;5.10;;;20.10;99.90;;;;;;6095659;23;20022;-83
2022/06/10 12:59:05;;;;;;;17.25;6.20;;;20.10;99.90;;;;;;6190385;23;20336;-82
2022/06/10 13:01:31;;;;;;;9.85;4.80;;;20.10;99.90;;;;;;6189608;23;20392;-85
2022/06/10 13:04:18;;;;;;;6.00;4.00;;;20.20;99.90;;;;;;6190163;23;20056;-82
2022/06/10 13:06:44;;;;;;;7.50;3.80;;;20.50;99.90;;;;;;6130413;23;20036;-84
2022/06/10 13:09:10;;;;;;;6.60;3.30;;;20.80;99.90;;;;;;6190214;23;20071;-83
2022/06/10 13:11:50;;;;;;;10.10;3.35;;;21.10;99.90;;;;;;6164640;23;20086;-82
2022/06/10 13:14:42;;;;;;;6.63;2.67;;;21.30;99.90;;;;;;6190682;23;20091;-82
2022/06/10 13:17:29;;;;;;;6.90;2.70;;;21.20;99.90;;;;;;6189826;23;20477;-83
2022/06/10 13:19:54;;;;;;;7.70;2.88;;;20.90;99.90;;;;;;6190069;23;20005;-83
2022/06/10 13:22:20;;;;;;;6.63;2.70;;;20.80;99.90;;;;;;6189703;23;20018;-83
2022/06/10 13:24:54;;;;;;;6.03;2.40;;;20.60;99.90;;;;;;6190617;23;20458;-84
2022/06/10 13:27:33;;;;;;;11.43;2.10;;;20.60;99.90;;;;;;6164719;23;20350;-86
2022/06/10 13:30:28;;;;;;;4.93;1.80;;;20.70;99.90;;;;;;6165651;23;20008;-85
2022/06/10 13:33:02;;;;;;;7.25;2.08;;;20.70;99.90;;;;;;6190421;23;20055;-83
2022/06/10 13:35:48;;;;;;;5.78;2.10;;;20.90;99.90;;;;;;6190217;23;20013;-84
2022/06/10 13:38:27;;;;;;;4.47;1.90;;;21.10;99.90;;;;;;6190111;23;20013;-83
2022/06/10 13:43:47;;;;;;;5.55;1.88;;;21.60;99.90;;;;;;6189553;23;20083;-85
2022/06/10 13:46:18;;;;;;;6.65;2.08;;;21.70;99.90;;;;;;6217193;23;20100;-84
2022/06/10 13:48:45;;;;;;;6.55;2.00;;;21.90;99.90;;;;;;6190459;23;20035;-83
2022/06/10 13:51:27;;;;;;;7.18;1.90;;;21.90;99.90;;;;;;6189921;23;20383;-83
2022/06/10 13:54:00;;;;;;;9.75;2.13;;;21.70;99.90;;;;;;6190322;23;20088;-85
2022/06/10 13:56:33;;;;;;;6.05;2.20;;;21.60;99.90;;;;;;6189863;23;20051;-82
2022/06/10 13:58:59;;;;;;;7.10;2.40;;;21.30;99.90;;;;;;6190318;23;20079;-85
2022/06/10 14:01:34;;;;;;;7.25;2.35;;;21.10;99.90;;;;;;6189647;23;20032;-85
2022/06/10 14:04:03;;;;;;;;;;;21.10;99.90;;;;;;6190124;23;20020;-84
2022/06/10 14:06:32;;;;;;;8.10;2.33;;;21.30;99.90;;;;;;6214666;23;20242;-84
2022/06/10 14:09:15;;;;;;;7.40;2.22;;;21.50;99.90;;;;;;6216718;23;20020;-85
2022/06/10 14:11:43;;;;;;;6.43;1.95;;;21.80;99.90;;;;;;6164953;23;20013;-88
2022/06/10 14:14:23;;;;;;;5.82;1.70;;;21.90;99.90;;;;;;6217892;23;20044;-85
2022/06/10 14:16:59;;;;;;;6.00;1.95;;;21.80;99.90;;;;;;6191509;23;20494;-83
2022/06/10 14:19:25;;;;;;;8.27;2.40;;;21.80;99.90;;;;;;6191682;23;20066;-85
2022/06/10 14:21:51;;;;;;;7.93;2.30;;;21.80;99.90;;;;;;6191258;23;20012;-84
2022/06/10 14:24:21;;;;;;;8.85;2.15;;;21.90;99.90;;;;;;6191812;23;20004;-83
2022/06/10 14:26:55;;;;;;;6.00;2.20;;;22.10;99.90;;;;;;6172087;23;20016;-85
2022/06/10 14:29:35;;;;;;;8.27;2.40;;;22.30;99.90;;;;;;6198736;23;20012;-84
2022/06/10 14:32:03;;;;;;;6.57;1.90;;;22.00;99.90;;;;;;6201941;23;20035;-83
2022/06/10 14:34:29;;;;;;;9.38;2.20;;;21.70;99.90;;;;;;6207775;23;20096;-81
2022/06/10 14:37:22;;;;;;;9.32;2.03;;;21.70;99.90;;;;;;6231301;23;20040;-81
2022/06/10 14:40:19;;;;;;;9.07;2.63;;;21.60;99.90;;;;;;6176124;23;20516;-85
2022/06/10 14:43:15;;;;;;;5.60;2.30;;;21.60;99.90;;;;;;6194203;23;20013;-84
2022/06/10 14:45:43;;;;;;;6.93;2.03;;;21.70;99.90;;;;;;6219219;23;20023;-83
2022/06/10 14:48:31;;;;;;;8.18;2.17;;;21.70;99.90;;;;;;6191322;23;20343;-82
2022/06/10 14:51:10;;;;;;;9.05;2.40;;;21.60;99.90;;;;;;6219312;23;20009;-83
2022/06/10 14:53:39;;;;;;;7.53;2.50;;;21.50;99.90;;;;;;6191690;23;20016;-85
2022/06/10 14:56:18;;;;;;;7.18;2.08;;;21.40;99.90;;;;;;6167019;23;20052;-83
2022/06/10 14:58:43;;;;;;;7.45;2.28;;;21.60;99.90;;;;;;6167766;23;20074;-84
2022/06/10 15:01:38;;;;;;;6.47;2.50;;;21.60;99.90;;;;;;6191258;23;20016;-84
2022/06/10 15:04:04;;;;;;;6.97;2.35;;;21.20;99.90;;;;;;6191247;23;20051;-86
2022/06/10 15:06:35;;;;;;;6.88;2.20;;;21.20;99.90;;;;;;6217623;23;20016;-84
2022/06/10 15:09:15;;;;;;;13.43;2.90;;;21.20;99.90;;;;;;6191771;23;20316;-84
2022/06/10 15:11:43;;;;;;;7.50;1.83;;;21.30;99.90;;;;;;6218186;23;20061;-84
2022/06/10 15:14:13;;;;;;;6.63;1.80;;;21.30;99.90;;;;;;6191236;23;20021;-83
2022/06/10 15:16:41;;;;;;;9.07;2.25;;;21.40;99.90;;;;;;6166159;23;20013;-85
2022/06/10 15:19:08;;;;;;;7.32;2.13;;;21.50;99.90;;;;;;6191324;23;20019;-84
2022/06/10 15:21:37;;;;;;;6.32;2.00;;;21.60;99.90;;;;;;6217452;23;20451;-82
2022/06/10 15:24:03;;;;;;;8.57;1.88;;;21.70;99.90;;;;;;6191346;23;20446;-86
2022/06/10 15:26:38;;;;;;;5.90;2.13;;;21.70;99.90;;;;;;6217898;23;20016;-85
2022/06/10 15:29:04;;;;;;;6.60;2.13;;;21.80;99.90;;;;;;6191515;23;20012;-84
2022/06/10 15:31:32;;;;;;;7.25;2.30;;;21.80;99.90;;;;;;6191211;23;20051;-83
2022/06/10 15:33:58;;;;;;;4.82;1.98;;;21.80;99.90;;;;;;6191311;23;20074;-82
2022/06/10 15:40:42;;;;;;;3.70;1.60;;;22.10;99.90;;;;;;6191558;23;20443;-82
2022/06/10 15:42:20;;;;;;;5.82;1.60;;;22.00;99.90;;;;;;6191086;23;20019;-83
2022/06/10 15:44:46;;;;;;;7.95;1.88;;;21.90;99.90;;;;;;6165601;23;20020;-84
2022/06/10 15:47:15;;;;;;;3.97;1.73;;;21.90;99.90;;;;;;6190697;23;20023;-84
2022/06/10 15:49:43;;;;;;;5.47;1.52;;;22.00;99.90;;;;;;6217574;23;20008;-84
2022/06/10 15:52:12;;;;;;;3.45;1.80;;;22.00;99.90;;;;;;6191367;23;20011;-84
2022/06/10 15:57:37;;;;;;;5.72;2.00;;;21.60;99.90;;;;;;6191216;23;20016;-86
2022/06/10 16:00:09;;;;;;;4.95;1.50;;;21.60;99.90;;;;;;6191185;23;20060;-83
2022/06/10 16:02:35;;;;;;;5.25;1.67;;;21.80;99.90;;;;;;6190853;23;20023;-83
2022/06/10 16:05:01;;;;;;;4.35;1.23;;;21.80;99.90;;;;;;6166484;23;20019;-84
2022/06/10 16:07:27;;;;;;;4.82;1.27;;;21.60;99.90;;;;;;6191041;23;20017;-85
2022/06/10 16:09:52;;;;;;;5.30;1.35;;;21.60;99.90;;;;;;6191179;23;20339;-85
2022/06/10 16:15:19;;;;;;;4.28;1.70;;;21.80;99.90;;;;;;6191659;23;20095;-84
2022/06/10 16:17:46;;;;;;;4.70;1.50;;;21.90;99.90;;;;;;6190974;23;20012;-84
2022/06/10 16:20:14;;;;;;;5.22;1.55;;;22.00;99.90;;;;;;6166865;23;20005;-83
2022/06/10 16:22:40;;;;;;;4.50;1.60;;;21.90;99.90;;;;;;6190877;23;20070;-84
2022/06/10 16:25:07;;;;;;;7.78;1.60;;;21.90;99.90;;;;;;6191270;23;20091;-81
2022/06/10 16:27:33;;;;;;;6.75;1.58;;;21.80;99.90;;;;;;6191229;23;20397;-83
2022/06/10 16:30:01;;;;;;;3.85;1.30;;;21.90;99.90;;;;;;6191917;23;20017;-84
2022/06/10 16:32:27;;;;;;;7.03;1.80;;;22.00;99.90;;;;;;6217126;23;20035;-84
2022/06/10 16:34:54;;;;;;;3.60;1.40;;;21.90;99.90;;;;;;6178154;23;20032;-85
2022/06/10 16:37:20;;;;;;;5.05;1.55;;;22.00;99.90;;;;;;6190674;23;20020;-84